メインページ
METAR-TAF:

METAR-TAF

空港 :

クウェート国際空港

クウェート, クウェート

緯度: 29-13N, 経度: 047-59E, 海抜: 55m

現時点の気象観測

当レポートは6分前の04:00(UTC)に作成
無風
気温 31°C
湿度 19%
気圧 1010 hPa
視程: 8000m

METAR: OKBK 220400Z 00000KT 8000 NSC 31/05 Q1010 NOSIG

時間: 07:06 (04:06 UTC)

予報

当レポートは11時間21分前の16:45(UTC)に作成
予報は21日の 18時(UTC)から 22日の 24時(UTC)まで有効
南/南西の風 10kt
視程: 7000m

TAF: OKBK 211645Z 2118/2224 20010KT 7000 NSC

4,000以上の空港の気象観測と天気予報(METAR報とTAF報)

利用可能な観測所は地図上に黄色い丸と赤い丸で示す。

丸の上にカーソルを重ねると観測所名を参照できる。

次にクリックすると気象観測と天気予報を参照できる。

マップの切り替え:黒色「×」印の緑ボタンをクリックして拡大、「-」印の緑ボタンをクリックして縮小、緑色の三角印をクリックして隣りの地図に切り替え


METAR-TAF: